createdAt,value
2018-07-14T00:01:59.478Z,17.31
2018-07-14T00:04:27.958Z,17.12
2018-07-14T00:06:56.264Z,17.21
2018-07-14T00:09:24.629Z,17.27
2018-07-14T00:11:52.960Z,16.83
2018-07-14T00:14:21.395Z,16.97
2018-07-14T00:16:49.666Z,16.88
2018-07-14T00:19:18.059Z,17.11
2018-07-14T00:21:46.340Z,17.06
2018-07-14T00:24:14.763Z,17.02
2018-07-14T00:26:42.961Z,17.11
2018-07-14T00:29:11.284Z,16.98
2018-07-14T00:31:39.559Z,17.08
2018-07-14T00:34:07.906Z,17.15
2018-07-14T00:36:36.182Z,17.15
2018-07-14T00:39:05.148Z,17.15
2018-07-14T00:41:33.517Z,16.96
2018-07-14T00:44:01.786Z,16.81
2018-07-14T00:46:30.028Z,17.11
2018-07-14T00:48:58.294Z,17.00
2018-07-14T00:51:26.544Z,16.99
2018-07-14T00:53:54.796Z,17.06
2018-07-14T00:56:22.999Z,16.85
2018-07-14T00:58:51.352Z,16.83
2018-07-14T01:01:19.600Z,17.03
2018-07-14T01:03:47.853Z,16.88
2018-07-14T01:06:16.144Z,16.94
2018-07-14T01:08:44.342Z,16.81
2018-07-14T01:11:12.636Z,16.89
2018-07-14T01:13:40.989Z,16.87
2018-07-14T01:16:09.267Z,17.02
2018-07-14T01:18:37.527Z,16.83
2018-07-14T01:21:05.772Z,16.85
2018-07-14T01:23:34.011Z,16.75
2018-07-14T01:26:02.268Z,16.85
2018-07-14T01:28:30.577Z,16.61
2018-07-14T01:30:58.880Z,16.40
2018-07-14T01:33:27.176Z,16.45
2018-07-14T01:35:55.425Z,16.34
2018-07-14T01:38:23.674Z,16.33
2018-07-14T01:40:51.923Z,16.32
2018-07-14T01:43:20.179Z,16.25
2018-07-14T01:45:48.422Z,16.26
2018-07-14T01:48:16.648Z,16.11
2018-07-14T01:50:45.064Z,16.27
2018-07-14T01:53:13.406Z,16.06
2018-07-14T01:55:41.763Z,16.01
2018-07-14T01:58:10.075Z,15.91
2018-07-14T02:00:38.361Z,15.79
2018-07-14T02:03:06.777Z,15.49
2018-07-14T02:05:35.084Z,15.42
2018-07-14T02:08:03.340Z,15.25
2018-07-14T02:10:31.611Z,15.38
2018-07-14T02:12:59.885Z,15.37
2018-07-14T02:15:28.155Z,15.42
2018-07-14T02:17:56.491Z,15.55
2018-07-14T02:20:24.746Z,15.42
2018-07-14T02:22:53.175Z,15.51
2018-07-14T02:25:21.685Z,15.48
2018-07-14T02:27:50.207Z,15.43
2018-07-14T02:30:18.460Z,15.24
2018-07-14T02:32:46.746Z,15.39
2018-07-14T02:35:14.994Z,15.23
2018-07-14T02:37:43.241Z,15.00
2018-07-14T02:40:11.505Z,15.19
2018-07-14T02:42:39.739Z,15.27
2018-07-14T02:45:08.272Z,15.19
2018-07-14T02:47:36.482Z,15.18
2018-07-14T02:50:04.819Z,15.06
2018-07-14T02:52:33.051Z,15.35
2018-07-14T02:55:01.321Z,15.13
2018-07-14T02:57:29.546Z,15.24
2018-07-14T02:59:57.813Z,15.25
2018-07-14T03:02:26.069Z,15.06
2018-07-14T03:04:54.304Z,14.88
2018-07-14T03:07:22.548Z,14.92
2018-07-14T03:09:50.744Z,15.12
2018-07-14T03:12:18.995Z,15.07
2018-07-14T03:14:47.220Z,15.08
2018-07-14T03:17:15.498Z,14.98
2018-07-14T03:19:43.760Z,15.03
2018-07-14T03:22:11.997Z,15.01
2018-07-14T03:24:40.230Z,15.00
2018-07-14T03:27:08.499Z,15.06
2018-07-14T03:29:36.772Z,15.03
2018-07-14T03:32:05.011Z,15.47
2018-07-14T03:34:33.269Z,15.21
2018-07-14T03:37:01.496Z,15.40
2018-07-14T03:39:29.746Z,15.18
2018-07-14T03:41:58.002Z,15.21
2018-07-14T03:44:26.256Z,15.07
2018-07-14T03:46:54.505Z,14.95
2018-07-14T03:49:22.728Z,15.26
2018-07-14T03:51:51.197Z,15.26
2018-07-14T03:54:19.559Z,15.31
2018-07-14T03:56:47.875Z,15.52
2018-07-14T03:59:16.095Z,15.45
2018-07-14T04:01:44.370Z,15.58
2018-07-14T04:04:12.622Z,15.55
2018-07-14T04:06:40.866Z,15.47
2018-07-14T04:09:09.177Z,15.50
2018-07-14T04:11:37.503Z,15.60
2018-07-14T04:14:05.775Z,15.64
2018-07-14T04:16:34.060Z,15.72
2018-07-14T04:19:02.379Z,15.64
2018-07-14T04:21:30.726Z,15.68
2018-07-14T04:23:59.043Z,15.70
2018-07-14T04:26:27.422Z,15.72
2018-07-14T04:28:55.628Z,15.71
2018-07-14T04:31:23.869Z,15.85
2018-07-14T04:33:52.106Z,15.81
2018-07-14T04:36:20.382Z,15.82
2018-07-14T04:38:48.667Z,15.96
2018-07-14T04:41:16.910Z,15.92
2018-07-14T04:43:45.167Z,15.86
2018-07-14T04:46:13.447Z,15.90
2018-07-14T04:48:41.704Z,15.91
2018-07-14T04:51:09.951Z,16.21
2018-07-14T04:53:38.337Z,16.10
2018-07-14T04:56:06.695Z,16.14
2018-07-14T04:58:35.002Z,16.01
2018-07-14T05:01:03.291Z,16.18
2018-07-14T05:03:31.583Z,16.11
2018-07-14T05:05:59.860Z,16.17
2018-07-14T05:08:28.234Z,16.02
2018-07-14T05:10:56.425Z,16.11
2018-07-14T05:13:24.645Z,16.24
2018-07-14T05:15:52.868Z,16.25
2018-07-14T05:18:21.097Z,16.31
2018-07-14T05:20:49.444Z,16.45
2018-07-14T05:23:17.685Z,16.47
2018-07-14T05:25:45.963Z,16.54
2018-07-14T05:28:14.201Z,16.52
2018-07-14T05:30:42.454Z,16.43
2018-07-14T05:33:10.671Z,16.35
2018-07-14T05:35:38.926Z,16.28
2018-07-14T05:38:07.127Z,16.48
2018-07-14T05:40:35.329Z,16.55
2018-07-14T05:43:03.561Z,16.44
2018-07-14T05:45:31.860Z,16.51
2018-07-14T05:48:00.119Z,16.55
2018-07-14T05:50:28.354Z,16.70
2018-07-14T05:52:57.329Z,16.70
2018-07-14T05:55:26.076Z,16.57
2018-07-14T05:57:54.317Z,16.45
2018-07-14T06:00:22.648Z,16.65
2018-07-14T06:02:51.490Z,16.63
2018-07-14T06:05:19.774Z,16.68
2018-07-14T06:07:48.059Z,16.64
2018-07-14T06:10:16.237Z,16.77
2018-07-14T06:12:44.506Z,16.68
2018-07-14T06:15:12.807Z,16.74
2018-07-14T06:17:41.034Z,16.94
2018-07-14T06:20:10.155Z,16.74
2018-07-14T06:22:38.429Z,16.87
2018-07-14T06:25:06.938Z,16.96
2018-07-14T06:27:35.250Z,17.07
2018-07-14T06:30:03.625Z,17.11
2018-07-14T06:32:31.935Z,17.13
2018-07-14T06:35:00.267Z,17.17
2018-07-14T06:37:28.594Z,17.35
2018-07-14T06:39:56.951Z,17.26
2018-07-14T06:42:25.393Z,17.37
2018-07-14T06:44:53.822Z,17.28
2018-07-14T06:47:21.978Z,17.23
2018-07-14T06:49:50.200Z,17.28
2018-07-14T06:52:18.409Z,17.34
2018-07-14T06:54:47.464Z,17.37
2018-07-14T06:57:15.830Z,17.31
2018-07-14T06:59:44.102Z,17.32
2018-07-14T07:02:12.359Z,17.20
2018-07-14T07:04:41.085Z,17.32
2018-07-14T07:07:09.448Z,17.27
2018-07-14T07:09:37.757Z,17.34
2018-07-14T07:12:05.985Z,17.44
2018-07-14T07:14:34.233Z,17.33
2018-07-14T07:17:02.515Z,17.40
2018-07-14T07:19:30.829Z,17.46
2018-07-14T07:22:05.155Z,17.44
2018-07-14T07:24:33.353Z,17.44
2018-07-14T07:27:01.629Z,17.52
2018-07-14T07:29:29.808Z,17.56
2018-07-14T07:31:58.092Z,17.56
2018-07-14T07:34:26.235Z,17.48
2018-07-14T07:36:54.462Z,17.52
2018-07-14T07:39:22.647Z,17.57
2018-07-14T07:41:50.956Z,17.55
2018-07-14T07:44:19.313Z,17.59
2018-07-14T07:46:47.565Z,17.40
2018-07-14T07:49:15.758Z,17.60
2018-07-14T07:51:44.051Z,17.66
2018-07-14T07:54:12.290Z,17.66
2018-07-14T07:56:40.455Z,17.82
2018-07-14T07:59:08.736Z,17.75
2018-07-14T08:01:36.893Z,17.60
2018-07-14T08:04:05.134Z,17.84
2018-07-14T08:06:33.356Z,17.81
2018-07-14T08:09:01.584Z,17.89
2018-07-14T08:11:29.791Z,17.75
2018-07-14T08:13:58.027Z,17.83
2018-07-14T08:16:26.255Z,18.03
2018-07-14T08:18:54.539Z,18.22
2018-07-14T08:21:22.803Z,18.14
2018-07-14T08:23:51.036Z,18.27
2018-07-14T08:26:19.334Z,18.31
2018-07-14T08:28:47.557Z,18.40
2018-07-14T08:31:15.829Z,18.40
2018-07-14T08:33:44.013Z,18.43
2018-07-14T08:36:12.331Z,18.52
2018-07-14T08:38:40.683Z,18.41
2018-07-14T08:41:09.281Z,18.46
2018-07-14T08:43:37.513Z,18.39
2018-07-14T08:46:05.754Z,18.25
2018-07-14T08:48:34.019Z,18.28
2018-07-14T08:51:02.240Z,18.19
2018-07-14T08:53:30.432Z,18.23
2018-07-14T08:55:58.580Z,18.14
2018-07-14T08:58:29.527Z,18.36
2018-07-14T09:00:59.201Z,18.52
2018-07-14T09:03:27.535Z,18.65
2018-07-14T09:05:56.321Z,18.62
2018-07-14T09:08:24.608Z,18.61
2018-07-14T09:10:52.780Z,18.57
2018-07-14T09:13:21.048Z,18.57
2018-07-14T09:15:49.275Z,18.62
2018-07-14T09:18:17.560Z,18.36
2018-07-14T09:20:45.842Z,18.47
2018-07-14T09:23:14.089Z,18.33
2018-07-14T09:25:42.347Z,18.54
2018-07-14T09:28:11.398Z,18.52
2018-07-14T09:30:39.561Z,18.54
2018-07-14T09:33:07.787Z,18.70
2018-07-14T09:35:36.101Z,18.49
2018-07-14T09:38:04.351Z,18.56
2018-07-14T09:40:32.525Z,18.62
2018-07-14T09:43:00.696Z,18.61
2018-07-14T09:45:28.931Z,18.57
2018-07-14T09:47:57.093Z,18.54
2018-07-14T09:50:25.316Z,18.43
2018-07-14T09:52:53.531Z,18.58
2018-07-14T09:55:21.766Z,18.87
2018-07-14T09:57:49.932Z,19.00
2018-07-14T10:00:23.519Z,18.90
2018-07-14T10:02:52.522Z,18.72
2018-07-14T10:05:20.856Z,19.12
2018-07-14T10:07:49.113Z,19.15
2018-07-14T10:10:17.397Z,19.19
2018-07-14T10:12:45.626Z,19.23
2018-07-14T10:15:13.862Z,19.11
2018-07-14T10:17:42.145Z,19.30
2018-07-14T10:20:10.609Z,19.03
2018-07-14T10:22:38.805Z,19.34
2018-07-14T10:25:07.088Z,19.25
2018-07-14T10:27:35.253Z,19.25
2018-07-14T10:30:03.562Z,19.16
2018-07-14T10:32:31.726Z,19.16
2018-07-14T10:35:00.106Z,18.88
2018-07-14T10:37:28.301Z,19.00
2018-07-14T10:39:56.506Z,19.32
2018-07-14T10:42:24.719Z,18.88
2018-07-14T10:44:52.912Z,19.07
2018-07-14T10:47:21.221Z,18.93
2018-07-14T10:49:49.449Z,18.82
2018-07-14T10:52:17.765Z,19.01
2018-07-14T10:54:46.022Z,19.00
2018-07-14T10:57:14.186Z,18.79
2018-07-14T10:59:42.399Z,18.73
2018-07-14T11:02:10.623Z,18.78
2018-07-14T11:04:38.841Z,18.86
2018-07-14T11:07:07.110Z,19.17
2018-07-14T11:09:35.339Z,19.21
2018-07-14T11:12:03.624Z,19.20
2018-07-14T11:14:31.854Z,19.33
2018-07-14T11:17:00.073Z,19.47
2018-07-14T11:19:28.247Z,19.49
2018-07-14T11:21:56.565Z,19.35
2018-07-14T11:24:24.955Z,19.65
2018-07-14T11:26:53.151Z,19.68
2018-07-14T11:29:21.396Z,19.87
2018-07-14T11:31:50.171Z,19.81
2018-07-14T11:34:18.393Z,19.89
2018-07-14T11:36:46.601Z,19.92
2018-07-14T11:39:14.901Z,20.02
2018-07-14T11:41:43.115Z,20.21
2018-07-14T11:44:11.402Z,20.17
2018-07-14T11:46:39.613Z,20.22
2018-07-14T11:49:07.812Z,20.20
2018-07-14T11:51:36.002Z,20.20
2018-07-14T11:54:04.288Z,20.26
2018-07-14T11:56:32.474Z,20.20
2018-07-14T11:59:00.767Z,20.36
2018-07-14T12:01:29.187Z,20.56
2018-07-14T12:03:57.352Z,20.66
2018-07-14T12:06:25.500Z,20.55
2018-07-14T12:08:53.695Z,20.76
2018-07-14T12:11:21.864Z,20.89
2018-07-14T12:13:50.302Z,21.10
2018-07-14T12:16:18.500Z,20.90
2018-07-14T12:18:46.782Z,20.99
2018-07-14T12:21:15.007Z,21.02
2018-07-14T12:23:43.272Z,20.59
2018-07-14T12:26:11.489Z,20.75
2018-07-14T12:28:39.688Z,20.79
2018-07-14T12:31:07.840Z,20.87
2018-07-14T12:33:36.082Z,20.83
2018-07-14T12:36:04.340Z,20.78
2018-07-14T12:38:32.581Z,21.02
2018-07-14T12:41:00.801Z,21.25
2018-07-14T12:43:29.039Z,21.06
2018-07-14T12:45:57.203Z,20.67
2018-07-14T12:48:25.381Z,20.66
2018-07-14T12:50:53.584Z,20.79
2018-07-14T12:53:21.884Z,20.59
2018-07-14T12:55:50.118Z,20.67
2018-07-14T12:58:18.274Z,20.69
2018-07-14T13:00:46.525Z,20.69
2018-07-14T13:03:14.716Z,21.01
2018-07-14T13:05:43.056Z,20.91
2018-07-14T13:08:11.314Z,20.98
2018-07-14T13:10:39.550Z,21.00
2018-07-14T13:13:07.918Z,21.29
2018-07-14T13:15:36.125Z,21.38
2018-07-14T13:18:04.325Z,21.16
2018-07-14T13:20:32.559Z,21.56
2018-07-14T13:23:00.798Z,21.64
2018-07-14T13:25:28.972Z,21.45
2018-07-14T13:27:57.285Z,21.56
2018-07-14T13:30:25.509Z,21.46
2018-07-14T13:32:53.841Z,21.16
2018-07-14T13:35:22.053Z,21.30
2018-07-14T13:37:50.285Z,20.98
2018-07-14T13:40:18.575Z,21.12
2018-07-14T13:42:46.892Z,21.28
2018-07-14T13:45:16.287Z,21.37
2018-07-14T13:47:44.605Z,21.45
2018-07-14T13:50:12.864Z,21.37
2018-07-14T13:52:41.264Z,20.95
2018-07-14T13:55:09.441Z,21.52
2018-07-14T13:57:37.976Z,21.58
2018-07-14T14:00:06.652Z,21.61
2018-07-14T14:02:34.896Z,21.55
2018-07-14T14:05:03.191Z,21.28
2018-07-14T14:07:31.417Z,21.44
2018-07-14T14:09:59.604Z,21.61
2018-07-14T14:12:27.862Z,21.46
2018-07-14T14:14:56.052Z,21.51
2018-07-14T14:17:25.493Z,21.29
2018-07-14T14:19:53.706Z,21.76
2018-07-14T14:22:21.938Z,21.65
2018-07-14T14:24:50.125Z,21.56
2018-07-14T14:27:18.319Z,21.71
2018-07-14T14:29:46.474Z,21.36
2018-07-14T14:32:14.678Z,21.34
2018-07-14T14:34:42.882Z,21.36
2018-07-14T14:37:11.122Z,21.64
2018-07-14T14:39:39.282Z,21.68
2018-07-14T14:42:07.704Z,21.47
2018-07-14T14:44:35.936Z,21.49
2018-07-14T14:47:04.147Z,21.65
2018-07-14T14:49:32.313Z,21.66
2018-07-14T14:52:00.523Z,21.30
2018-07-14T14:54:28.750Z,21.33
2018-07-14T14:56:57.059Z,21.44
2018-07-14T14:59:25.300Z,21.03
2018-07-14T15:01:53.627Z,21.30
2018-07-14T15:04:21.886Z,21.31
2018-07-14T15:06:50.164Z,21.50
2018-07-14T15:09:18.467Z,21.53
2018-07-14T15:11:46.664Z,21.38
2018-07-14T15:14:14.839Z,21.14
2018-07-14T15:16:43.044Z,21.17
2018-07-14T15:19:11.395Z,21.51
2018-07-14T15:21:39.680Z,21.53
2018-07-14T15:24:08.165Z,21.28
2018-07-14T15:26:36.374Z,21.44
2018-07-14T15:29:04.574Z,21.51
2018-07-14T15:31:32.793Z,21.35
2018-07-14T15:34:01.001Z,21.40
2018-07-14T15:36:29.232Z,21.43
2018-07-14T15:38:57.406Z,21.57
2018-07-14T15:41:25.744Z,21.55
2018-07-14T15:43:53.936Z,21.26
2018-07-14T15:46:22.161Z,21.40
2018-07-14T15:48:50.437Z,21.44
2018-07-14T15:51:18.691Z,21.42
2018-07-14T15:53:46.967Z,21.58
2018-07-14T15:56:15.159Z,21.67
2018-07-14T15:58:43.393Z,21.33
2018-07-14T16:01:11.609Z,21.58
2018-07-14T16:03:39.808Z,21.52
2018-07-14T16:06:08.063Z,21.55
2018-07-14T16:08:36.333Z,21.25
2018-07-14T16:11:04.545Z,21.61
2018-07-14T16:13:34.440Z,21.39
2018-07-14T16:16:03.577Z,21.38
2018-07-14T16:18:34.279Z,21.54
2018-07-14T16:21:03.703Z,21.38
2018-07-14T16:23:31.926Z,21.38
2018-07-14T16:26:00.113Z,21.25
2018-07-14T16:28:28.361Z,21.42
2018-07-14T16:30:56.686Z,21.51
2018-07-14T16:33:24.988Z,21.28
2018-07-14T16:35:53.891Z,21.42
2018-07-14T16:38:22.074Z,21.52
2018-07-14T16:40:50.566Z,21.35
2018-07-14T16:43:18.780Z,21.44
2018-07-14T16:45:46.974Z,21.20
2018-07-14T16:48:15.188Z,21.54
2018-07-14T16:50:43.333Z,21.42
2018-07-14T16:53:11.591Z,21.52
2018-07-14T16:55:39.801Z,21.43
2018-07-14T16:58:08.045Z,21.32
2018-07-14T17:00:36.207Z,21.15
2018-07-14T17:03:04.436Z,21.24
2018-07-14T17:05:32.601Z,21.12
2018-07-14T17:08:00.960Z,21.39
2018-07-14T17:10:29.215Z,21.17
2018-07-14T17:12:57.535Z,21.08
2018-07-14T17:15:25.755Z,21.12
2018-07-14T17:17:54.005Z,21.04
2018-07-14T17:20:22.234Z,21.05
2018-07-14T17:22:50.441Z,20.97
2018-07-14T17:25:18.692Z,21.07
2018-07-14T17:27:46.901Z,20.96
2018-07-14T17:30:15.400Z,20.95
2018-07-14T17:32:43.625Z,20.94
2018-07-14T17:35:11.878Z,21.06
2018-07-14T17:37:40.126Z,21.28
2018-07-14T17:40:08.382Z,21.47
2018-07-14T17:42:36.643Z,20.78
2018-07-14T17:45:05.306Z,20.96
2018-07-14T17:47:33.565Z,20.83
2018-07-14T17:50:02.000Z,21.05
2018-07-14T17:52:30.259Z,20.86
2018-07-14T17:54:58.483Z,20.77
2018-07-14T17:57:26.836Z,20.73
2018-07-14T17:59:55.125Z,20.72
2018-07-14T18:02:23.326Z,20.70
2018-07-14T18:04:51.684Z,20.80
2018-07-14T18:07:20.001Z,20.80
2018-07-14T18:09:48.204Z,20.71
2018-07-14T18:12:17.738Z,20.74
2018-07-14T18:14:45.946Z,20.91
2018-07-14T18:17:14.173Z,20.55
2018-07-14T18:19:42.387Z,20.92
2018-07-14T18:22:10.805Z,20.95
2018-07-14T18:24:39.053Z,20.74
2018-07-14T18:27:07.283Z,20.87
2018-07-14T18:29:35.439Z,20.74
2018-07-14T18:32:03.688Z,20.68
2018-07-14T18:34:31.873Z,20.61
2018-07-14T18:37:00.169Z,20.59
2018-07-14T18:39:28.373Z,20.80
2018-07-14T18:41:56.740Z,20.61
2018-07-14T18:44:25.177Z,20.55
2018-07-14T18:46:53.413Z,20.42
2018-07-14T18:49:21.630Z,20.57
2018-07-14T18:51:49.919Z,20.61
2018-07-14T18:54:18.402Z,20.67
2018-07-14T18:56:46.743Z,20.55
2018-07-14T18:59:15.006Z,20.52
2018-07-14T19:01:43.297Z,20.55
2018-07-14T19:04:11.570Z,20.40
2018-07-14T19:06:39.841Z,20.73
2018-07-14T19:09:08.144Z,20.68
2018-07-14T19:11:37.226Z,20.60
2018-07-14T19:14:05.567Z,20.61
2018-07-14T19:16:33.786Z,20.71
2018-07-14T19:19:02.027Z,20.66
2018-07-14T19:21:30.380Z,20.76
2018-07-14T19:23:58.597Z,20.70
2018-07-14T19:26:26.812Z,20.61
2018-07-14T19:28:55.035Z,20.57
2018-07-14T19:31:23.238Z,20.64
2018-07-14T19:33:51.554Z,20.57
2018-07-14T19:36:19.793Z,20.65
2018-07-14T19:38:48.036Z,20.28
2018-07-14T19:41:16.246Z,20.28
2018-07-14T19:43:44.509Z,20.27
2018-07-14T19:46:12.744Z,20.37
2018-07-14T19:48:41.069Z,20.44
2018-07-14T19:51:09.443Z,20.39
2018-07-14T19:53:38.455Z,20.47
2018-07-14T19:56:06.790Z,20.41
2018-07-14T19:58:34.873Z,20.49
2018-07-14T20:01:03.092Z,20.44
2018-07-14T20:03:31.342Z,20.44
2018-07-14T20:05:59.555Z,20.28
2018-07-14T20:08:27.789Z,20.40
2018-07-14T20:10:56.140Z,20.34
2018-07-14T20:13:24.467Z,20.08
2018-07-14T20:15:52.681Z,20.16
2018-07-14T20:18:20.912Z,20.34
2018-07-14T20:20:49.488Z,20.26
2018-07-14T20:23:17.839Z,20.19
2018-07-14T20:25:46.177Z,20.11
2018-07-14T20:28:14.445Z,20.17
2018-07-14T20:30:42.683Z,20.21
2018-07-14T20:33:11.011Z,20.22
2018-07-14T20:35:39.301Z,19.89
2018-07-14T20:38:07.783Z,20.01
2018-07-14T20:40:36.198Z,20.08
2018-07-14T20:43:04.516Z,20.04
2018-07-14T20:45:32.876Z,19.91
2018-07-14T20:48:01.127Z,19.86
2018-07-14T20:50:29.397Z,19.74
2018-07-14T20:52:57.669Z,19.84
2018-07-14T20:55:25.885Z,19.84
2018-07-14T20:57:54.089Z,19.98
2018-07-14T21:00:22.338Z,19.98
2018-07-14T21:02:50.932Z,20.00
2018-07-14T21:05:19.367Z,20.08
2018-07-14T21:07:47.893Z,20.09
2018-07-14T21:10:16.115Z,20.12
2018-07-14T21:12:44.387Z,20.12
2018-07-14T21:15:12.755Z,20.14
2018-07-14T21:17:41.139Z,20.09
2018-07-14T21:20:09.762Z,20.06
2018-07-14T21:22:38.038Z,20.00
2018-07-14T21:25:06.483Z,20.05
2018-07-14T21:27:34.780Z,20.01
2018-07-14T21:30:02.985Z,19.91
2018-07-14T21:32:31.240Z,19.92
2018-07-14T21:34:59.469Z,19.89
2018-07-14T21:37:27.754Z,19.95
2018-07-14T21:39:55.976Z,19.93
2018-07-14T21:42:24.230Z,19.89
2018-07-14T21:44:52.389Z,19.70
2018-07-14T21:47:20.619Z,19.64
2018-07-14T21:49:48.780Z,19.73
2018-07-14T21:52:17.038Z,19.69
2018-07-14T21:54:45.293Z,19.53
2018-07-14T21:57:13.486Z,19.33
2018-07-14T21:59:41.797Z,19.09
2018-07-14T22:02:10.011Z,19.44
2018-07-14T22:04:38.214Z,19.38
2018-07-14T22:07:06.452Z,19.08
2018-07-14T22:09:34.743Z,19.27
2018-07-14T22:12:03.118Z,19.06
2018-07-14T22:14:31.357Z,19.05
2018-07-14T22:16:59.617Z,18.74
2018-07-14T22:19:27.852Z,19.03
2018-07-14T22:21:56.177Z,19.11
2018-07-14T22:24:27.085Z,19.00
2018-07-14T22:26:56.958Z,18.86
2018-07-14T22:29:28.542Z,18.83
2018-07-14T22:31:59.339Z,18.85
2018-07-14T22:34:28.280Z,18.87
2018-07-14T22:36:59.426Z,18.66
2018-07-14T22:39:29.147Z,18.86
2018-07-14T22:42:00.554Z,18.99
2018-07-14T22:44:30.610Z,18.91
2018-07-14T22:47:02.623Z,18.65
2018-07-14T22:49:33.487Z,18.89
2018-07-14T22:52:04.241Z,18.98
2018-07-14T22:54:33.554Z,18.77
2018-07-14T22:57:06.307Z,18.80
2018-07-14T22:59:41.776Z,18.64
2018-07-14T23:02:11.297Z,18.76
2018-07-14T23:04:43.155Z,18.69
2018-07-14T23:07:14.973Z,18.66
2018-07-14T23:12:16.956Z,18.44
2018-07-14T23:14:45.246Z,18.41
2018-07-14T23:17:13.588Z,18.48
2018-07-14T23:19:41.754Z,18.45
2018-07-14T23:22:09.986Z,18.36
2018-07-14T23:24:38.209Z,18.05
2018-07-14T23:27:06.382Z,18.27
2018-07-14T23:29:35.372Z,18.30
2018-07-14T23:32:03.650Z,18.28
2018-07-14T23:34:31.849Z,18.25
2018-07-14T23:37:00.153Z,18.10
2018-07-14T23:39:28.347Z,18.16
2018-07-14T23:41:56.717Z,18.12
2018-07-14T23:44:24.887Z,17.83
2018-07-14T23:46:53.122Z,17.87
2018-07-14T23:49:21.345Z,17.46
2018-07-14T23:51:50.513Z,17.69
2018-07-14T23:54:18.737Z,17.60
2018-07-14T23:56:47.145Z,17.92
2018-07-14T23:59:15.309Z,17.87
